Time;durP1;ratioP1;P1;durP2;ratioP2;P2;SDS_P1;SDS_P2;PMS_P1;PMS_P2;Temp;Humidity;BMP_temperature;BMP_pressure;BME280_temperature;BME280_humidity;BME280_pressure;Samples;Min_cycle;Max_cycle;Signal;HPM_P1;HPM_P2
2022/12/25 00:00:53;;;;;;;26.45;9.95;;;6.50;99.90;;;;;;5108246;28;20436;-73
2022/12/25 00:03:19;;;;;;;34.78;10.30;;;6.40;99.90;;;;;;5092232;28;20052;-73
2022/12/25 00:05:45;;;;;;;40.10;10.57;;;6.40;99.90;;;;;;5093845;28;20019;-73
2022/12/25 00:08:11;;;;;;;36.55;10.30;;;6.40;99.90;;;;;;5092369;28;20016;-73
2022/12/25 00:10:36;;;;;;;37.13;11.43;;;6.40;99.90;;;;;;5111144;28;20055;-73
2022/12/25 00:13:02;;;;;;;39.80;10.35;;;6.30;99.90;;;;;;5092894;28;20091;-73
2022/12/25 00:15:28;;;;;;;28.60;10.02;;;6.30;99.90;;;;;;5094292;28;20026;-73
2022/12/25 00:17:54;;;;;;;22.35;8.70;;;6.30;99.90;;;;;;5075742;28;20027;-73
2022/12/25 00:20:19;;;;;;;34.63;10.43;;;6.20;99.90;;;;;;5106004;28;20034;-72
2022/12/25 00:22:45;;;;;;;33.63;10.35;;;6.20;99.90;;;;;;5110684;28;20051;-73
2022/12/25 00:25:11;;;;;;;32.80;10.25;;;6.20;99.90;;;;;;5125276;28;20031;-74
2022/12/25 00:27:36;;;;;;;31.48;10.60;;;6.20;99.90;;;;;;5096378;28;20032;-73
2022/12/25 00:30:06;;;;;;;30.38;10.25;;;6.10;99.90;;;;;;5092974;28;20106;-73
2022/12/25 00:32:35;;;;;;;33.03;9.85;;;6.10;99.90;;;;;;5094115;28;20080;-73
2022/12/25 00:35:01;;;;;;;37.13;11.32;;;6.10;99.90;;;;;;5089996;28;20348;-73
2022/12/25 00:37:26;;;;;;;35.30;10.10;;;6.10;99.90;;;;;;5093095;28;20020;-73
2022/12/25 00:39:52;;;;;;;26.23;9.38;;;6.00;99.90;;;;;;5091263;28;20039;-73
2022/12/25 00:42:18;;;;;;;29.15;11.02;;;6.00;99.90;;;;;;5093175;28;20063;-73
2022/12/25 00:44:45;;;;;;;31.27;9.75;;;6.00;99.90;;;;;;5092646;28;20024;-73
2022/12/25 00:47:10;;;;;;;29.55;11.38;;;6.00;99.90;;;;;;5092307;28;20118;-73
2022/12/25 00:49:36;;;;;;;46.72;12.00;;;5.90;99.90;;;;;;5109794;28;20127;-73
2022/12/25 00:52:02;;;;;;;31.83;10.40;;;5.90;99.90;;;;;;5091498;28;20049;-73
2022/12/25 00:54:28;;;;;;;26.02;11.10;;;5.90;99.90;;;;;;5092681;28;20024;-73
2022/12/25 00:56:54;;;;;;;35.08;11.40;;;5.90;99.90;;;;;;5093055;28;20020;-73
2022/12/25 00:59:19;;;;;;;41.08;11.63;;;5.90;99.90;;;;;;5102073;28;20236;-73
2022/12/25 01:01:45;;;;;;;37.67;11.77;;;5.90;99.90;;;;;;5092425;28;20526;-73
2022/12/25 01:04:12;;;;;;;43.55;11.75;;;5.80;99.90;;;;;;5093189;28;20023;-73
2022/12/25 01:06:38;;;;;;;31.45;10.45;;;5.80;99.90;;;;;;5092802;28;20119;-73
2022/12/25 01:11:48;;;;;;;34.53;10.35;;;5.70;99.90;;;;;;5111485;28;20037;-73
2022/12/25 01:14:14;;;;;;;34.38;10.75;;;5.70;99.90;;;;;;5075142;28;20302;-73
2022/12/25 01:16:39;;;;;;;36.30;11.40;;;5.70;99.90;;;;;;5111045;28;20071;-73
2022/12/25 01:19:05;;;;;;;33.85;11.10;;;5.70;99.90;;;;;;5089703;28;20463;-73
2022/12/25 01:21:31;;;;;;;37.58;9.82;;;5.70;99.90;;;;;;5092194;28;20518;-73
2022/12/25 01:23:57;;;;;;;34.35;11.68;;;5.70;99.90;;;;;;5092283;28;20058;-73
2022/12/25 01:26:25;;;;;;;36.78;10.77;;;5.70;99.90;;;;;;5111816;28;20484;-73
2022/12/25 01:28:51;;;;;;;26.25;10.20;;;5.70;99.90;;;;;;5093957;28;20414;-73
2022/12/25 01:31:19;;;;;;;35.22;10.45;;;5.70;99.90;;;;;;5092659;28;20028;-73
2022/12/25 01:33:45;;;;;;;37.08;12.18;;;5.70;99.90;;;;;;5092650;28;20353;-73
2022/12/25 01:36:12;;;;;;;34.35;11.32;;;5.70;99.90;;;;;;5089230;28;20035;-73
2022/12/25 01:38:38;;;;;;;37.75;12.52;;;5.70;99.90;;;;;;5109936;28;20533;-73
2022/12/25 01:41:03;;;;;;;37.60;12.07;;;5.70;99.90;;;;;;5110109;28;20035;-73
2022/12/25 01:43:31;;;;;;;46.58;13.65;;;5.70;99.90;;;;;;5092707;28;20518;-73
2022/12/25 01:45:58;;;;;;;42.85;13.43;;;5.70;99.90;;;;;;5108702;28;20076;-73
2022/12/25 01:48:33;;;;;;;36.35;13.68;;;5.70;99.90;;;;;;5090803;28;20101;-73
2022/12/25 01:51:04;;;;;;;43.67;12.88;;;5.70;99.90;;;;;;5091843;28;20035;-73
2022/12/25 01:53:31;;;;;;;37.17;13.60;;;5.60;99.90;;;;;;5109166;28;20031;-73
2022/12/25 01:56:02;;;;;;;47.50;14.43;;;5.60;99.90;;;;;;5096598;28;20035;-73
2022/12/25 01:58:28;;;;;;;;;;;5.60;99.90;;;;;;5102904;28;20103;-73
2022/12/25 02:00:54;;;;;;;45.13;14.35;;;5.60;99.90;;;;;;5101412;28;20440;-72
2022/12/25 02:03:20;;;;;;;38.85;12.38;;;5.60;99.90;;;;;;5091549;28;20085;-73
2022/12/25 02:05:46;;;;;;;42.63;13.88;;;5.60;99.90;;;;;;5091384;28;20031;-72
2022/12/25 02:08:15;;;;;;;46.22;14.80;;;5.50;99.90;;;;;;5110758;28;20043;-73
2022/12/25 02:10:43;;;;;;;44.53;14.27;;;5.60;99.90;;;;;;5090711;28;20042;-73
2022/12/25 02:13:11;;;;;;;45.47;15.70;;;5.50;99.90;;;;;;5073135;28;20255;-73
2022/12/25 02:16:04;;;;;;;46.83;14.13;;;5.50;99.90;;;;;;5091165;28;20049;-73
2022/12/25 02:18:44;;;;;;;38.35;13.05;;;5.50;99.90;;;;;;5098662;28;20100;-73
2022/12/25 02:21:31;;;;;;;40.50;13.55;;;5.60;99.90;;;;;;5090421;28;20024;-73
2022/12/25 02:24:23;;;;;;;51.28;14.23;;;5.60;99.90;;;;;;5089505;28;20110;-73
2022/12/25 02:27:13;;;;;;;43.63;13.82;;;5.60;99.90;;;;;;5090066;28;20391;-73
2022/12/25 02:30:03;;;;;;;48.15;14.48;;;5.60;99.90;;;;;;5072357;28;20074;-73
2022/12/25 02:32:48;;;;;;;33.87;13.30;;;5.60;99.90;;;;;;5089060;28;20024;-73
2022/12/25 02:35:24;;;;;;;49.22;15.40;;;5.50;99.90;;;;;;5091476;28;20632;-73
2022/12/25 02:38:13;;;;;;;48.05;14.07;;;5.40;99.90;;;;;;5092010;28;20024;-73
2022/12/25 02:40:45;;;;;;;38.85;12.80;;;5.40;99.90;;;;;;5089657;28;20379;-72
2022/12/25 03:08:37;;;;;;;40.72;12.50;;;5.20;99.90;;;;;;5091121;28;20050;-72
2022/12/25 03:13:52;;;;;;;36.55;13.18;;;5.20;99.90;;;;;;5103928;28;20020;-72
2022/12/25 03:26:53;;;;;;;39.28;12.35;;;5.10;99.90;;;;;;5109283;28;20228;-72
2022/12/25 03:27:19;;;;;;;34.50;13.20;;;5.10;99.90;;;;;;5108041;28;20049;-72
2022/12/25 03:32:40;;;;;;;43.70;16.35;;;5.10;99.90;;;;;;5089711;28;20020;-72
2022/12/25 03:35:24;;;;;;;43.60;15.00;;;5.10;99.90;;;;;;5090704;28;20016;-72
2022/12/25 04:36:16;;;;;;;53.10;18.58;;;5.40;99.90;;;;;;5109249;28;20026;-72
2022/12/25 04:38:41;;;;;;;60.08;18.63;;;5.40;99.90;;;;;;5111134;28;20027;-72
2022/12/25 04:41:10;;;;;;;56.47;18.50;;;5.40;99.90;;;;;;5092739;28;20028;-72
2022/12/25 04:43:35;;;;;;;50.42;18.08;;;5.40;99.90;;;;;;5090712;28;20031;-72
2022/12/25 04:46:02;;;;;;;42.85;17.73;;;5.30;99.90;;;;;;5110770;28;20020;-72
2022/12/25 04:48:30;;;;;;;46.47;16.90;;;5.30;99.90;;;;;;5092397;28;20024;-72
2022/12/25 04:50:56;;;;;;;43.78;16.58;;;5.20;99.90;;;;;;5110521;28;20049;-72
2022/12/25 04:53:22;;;;;;;47.45;17.73;;;5.20;99.90;;;;;;5118624;28;20066;-71
2022/12/25 04:55:48;;;;;;;40.40;15.95;;;5.20;99.90;;;;;;5108445;28;20031;-72
2022/12/25 04:58:14;;;;;;;46.42;16.35;;;5.20;99.90;;;;;;5081451;28;20441;-73
2022/12/25 05:00:40;;;;;;;39.05;15.43;;;5.20;99.90;;;;;;5112674;28;20399;-72
2022/12/25 05:03:06;;;;;;;40.65;14.80;;;5.20;99.90;;;;;;5075185;28;20031;-72
2022/12/25 05:05:31;;;;;;;42.20;14.70;;;5.20;99.90;;;;;;5089789;28;20050;-72
2022/12/25 05:07:57;;;;;;;36.85;13.45;;;5.20;99.90;;;;;;5112043;28;20033;-72
2022/12/25 05:10:23;;;;;;;40.72;13.82;;;5.20;99.90;;;;;;5111587;28;20080;-72
2022/12/25 05:12:49;;;;;;;34.72;13.55;;;5.10;99.90;;;;;;5107307;28;20024;-72
2022/12/25 05:15:14;;;;;;;39.95;13.73;;;5.10;99.90;;;;;;5092987;28;20019;-72
2022/12/25 05:17:40;;;;;;;37.67;14.27;;;5.10;99.90;;;;;;5093305;28;20725;-71
2022/12/25 05:20:06;;;;;;;38.67;14.60;;;5.10;99.90;;;;;;5110839;28;20023;-71
2022/12/25 05:22:32;;;;;;;32.97;13.98;;;5.10;99.90;;;;;;5115439;28;20089;-72
2022/12/25 05:24:58;;;;;;;35.72;13.40;;;5.10;99.90;;;;;;5092481;28;20035;-72
2022/12/25 05:27:24;;;;;;;34.33;13.35;;;5.20;99.90;;;;;;5092403;28;20106;-72
2022/12/25 05:29:49;;;;;;;27.70;13.05;;;5.20;99.90;;;;;;5073884;28;20027;-73
2022/12/25 05:32:15;;;;;;;30.65;13.02;;;5.10;99.90;;;;;;5093021;28;20190;-72
2022/12/25 05:34:41;;;;;;;35.67;13.00;;;5.20;99.90;;;;;;5090547;28;20389;-73
2022/12/25 05:37:06;;;;;;;32.30;12.30;;;5.20;99.90;;;;;;5110696;28;20016;-73
2022/12/25 05:39:32;;;;;;;35.35;13.27;;;5.20;99.90;;;;;;5111901;28;20177;-72
2022/12/25 05:41:58;;;;;;;43.40;14.68;;;5.20;99.90;;;;;;5092767;28;20110;-73
2022/12/25 05:44:24;;;;;;;31.63;13.43;;;5.20;99.90;;;;;;5114144;28;20122;-73
2022/12/25 05:46:49;;;;;;;37.65;13.32;;;5.20;99.90;;;;;;5078926;28;20210;-73
2022/12/25 05:49:15;;;;;;;35.03;13.68;;;5.20;99.90;;;;;;5115253;28;20126;-73
2022/12/25 05:51:41;;;;;;;34.33;13.55;;;5.20;99.90;;;;;;5096926;28;20038;-73
2022/12/25 05:54:07;;;;;;;39.42;14.30;;;5.10;99.90;;;;;;5097065;28;20020;-73
2022/12/25 05:56:32;;;;;;;35.42;13.60;;;5.20;99.90;;;;;;5111337;28;20120;-72
2022/12/25 05:58:58;;;;;;;32.38;13.38;;;5.20;99.90;;;;;;5109038;28;20033;-72
2022/12/25 06:01:26;;;;;;;39.85;14.32;;;5.20;99.90;;;;;;5090466;28;20106;-73
2022/12/25 06:03:53;;;;;;;38.00;13.85;;;5.20;99.90;;;;;;5075390;28;20023;-73
2022/12/25 06:06:18;;;;;;;37.08;14.40;;;5.10;99.90;;;;;;5110140;28;20032;-73
2022/12/25 06:08:44;;;;;;;30.38;12.52;;;5.10;99.90;;;;;;5106121;28;20525;-72
2022/12/25 06:11:12;;;;;;;35.25;13.52;;;5.10;99.90;;;;;;5090059;28;20434;-73
2022/12/25 06:13:37;;;;;;;39.50;15.68;;;5.10;99.90;;;;;;5109641;28;20054;-73
2022/12/25 06:16:06;;;;;;;36.70;13.77;;;5.10;99.90;;;;;;5108786;28;20051;-71
2022/12/25 06:18:41;;;;;;;36.65;13.15;;;5.00;99.90;;;;;;5087900;28;20403;-72
2022/12/25 06:21:08;;;;;;;36.83;13.93;;;5.00;99.90;;;;;;5090222;28;20065;-72
2022/12/25 06:23:34;;;;;;;34.10;14.23;;;5.00;99.90;;;;;;5109351;28;20016;-71
2022/12/25 06:26:09;;;;;;;31.30;13.25;;;5.00;99.90;;;;;;5090193;28;20391;-72
2022/12/25 06:28:35;;;;;;;40.85;14.07;;;4.90;99.90;;;;;;5108086;28;20483;-72
2022/12/25 06:31:09;;;;;;;36.70;13.75;;;4.90;99.90;;;;;;5108884;28;20096;-73
2022/12/25 06:33:35;;;;;;;38.08;14.45;;;5.00;99.90;;;;;;5091157;28;20524;-71
2022/12/25 06:36:13;;;;;;;38.75;14.15;;;4.90;99.90;;;;;;5107678;28;20047;-71
2022/12/25 06:38:39;;;;;;;35.60;13.43;;;4.90;99.90;;;;;;5089873;28;20154;-71
2022/12/25 06:41:07;;;;;;;38.97;13.25;;;5.00;99.90;;;;;;5085539;28;20047;-72
2022/12/25 06:43:33;;;;;;;37.17;12.57;;;5.00;99.90;;;;;;5089164;28;20148;-72
2022/12/25 06:46:10;;;;;;;33.88;12.85;;;5.00;99.90;;;;;;5105575;28;20023;-72
2022/12/25 06:48:37;;;;;;;46.10;14.55;;;5.10;99.90;;;;;;5106312;28;20055;-72
2022/12/25 06:51:05;;;;;;;36.00;13.65;;;5.20;99.90;;;;;;5087819;28;20019;-72
2022/12/25 06:53:32;;;;;;;33.80;13.68;;;5.20;99.90;;;;;;5109865;28;20035;-72
2022/12/25 06:56:05;;;;;;;38.38;13.73;;;5.20;99.90;;;;;;5091803;28;20024;-73
2022/12/25 06:58:31;;;;;;;32.40;13.88;;;5.20;99.90;;;;;;5089186;28;20103;-72
2022/12/25 07:00:57;;;;;;;37.20;13.43;;;5.20;99.90;;;;;;5107840;28;20094;-73
2022/12/25 07:03:26;;;;;;;34.78;12.60;;;5.20;99.90;;;;;;5111076;28;20035;-73
2022/12/25 07:05:51;;;;;;;33.03;11.85;;;5.10;99.90;;;;;;5091049;28;20077;-72
2022/12/25 07:08:17;;;;;;;44.67;12.75;;;5.10;99.90;;;;;;5088644;28;20028;-72
2022/12/25 07:10:43;;;;;;;31.75;12.50;;;5.10;99.90;;;;;;5089444;28;20024;-72
2022/12/25 07:13:08;;;;;;;29.48;12.00;;;5.10;99.90;;;;;;5110732;28;20016;-72
2022/12/25 07:15:34;;;;;;;34.42;12.05;;;5.10;99.90;;;;;;5089980;28;20435;-73
2022/12/25 07:18:00;;;;;;;37.28;12.82;;;5.00;99.90;;;;;;5108654;28;20019;-72
2022/12/25 07:20:26;;;;;;;37.45;12.27;;;5.10;99.90;;;;;;5109686;28;20142;-72
2022/12/25 07:22:52;;;;;;;27.83;12.80;;;5.10;99.90;;;;;;5091072;28;20034;-72
2022/12/25 07:25:17;;;;;;;37.33;13.10;;;5.10;99.90;;;;;;5089643;28;20074;-72
2022/12/25 07:27:43;;;;;;;37.42;12.90;;;5.10;99.90;;;;;;5093086;28;20035;-72
2022/12/25 07:30:09;;;;;;;37.92;13.13;;;5.10;99.90;;;;;;5112132;28;20077;-72
2022/12/25 07:32:35;;;;;;;38.42;13.55;;;5.10;99.90;;;;;;5109013;28;20047;-72
2022/12/25 07:35:00;;;;;;;37.30;13.77;;;5.10;99.90;;;;;;5092778;28;20463;-71
2022/12/25 07:37:26;;;;;;;34.35;13.20;;;5.20;99.90;;;;;;5110265;28;20449;-72
2022/12/25 07:39:52;;;;;;;33.10;12.90;;;5.20;99.90;;;;;;5109103;28;20406;-72
2022/12/25 07:42:17;;;;;;;40.80;13.82;;;5.20;99.90;;;;;;5090921;28;20028;-72
2022/12/25 07:44:43;;;;;;;33.60;13.15;;;5.30;99.90;;;;;;5109113;28;20040;-72
2022/12/25 07:47:09;;;;;;;32.80;13.63;;;5.30;99.90;;;;;;5090657;28;20198;-72
2022/12/25 07:49:35;;;;;;;37.72;14.85;;;5.30;99.90;;;;;;5071456;28;20023;-71
2022/12/25 07:52:01;;;;;;;33.13;13.00;;;5.30;99.90;;;;;;5090062;28;20039;-73
2022/12/25 07:54:27;;;;;;;34.17;13.13;;;5.40;99.90;;;;;;5090278;28;20503;-73
2022/12/25 07:56:52;;;;;;;36.47;13.60;;;5.40;99.90;;;;;;5090250;28;20024;-73
2022/12/25 07:59:19;;;;;;;38.05;13.77;;;5.40;99.90;;;;;;5105388;28;20476;-73
2022/12/25 08:01:45;;;;;;;39.10;12.75;;;5.40;99.90;;;;;;5103282;28;20027;-73
2022/12/25 08:04:11;;;;;;;31.02;12.35;;;5.40;99.90;;;;;;5104958;28;20028;-72
2022/12/25 08:06:37;;;;;;;29.25;11.50;;;5.50;99.90;;;;;;5105514;28;20050;-73
2022/12/25 08:09:11;;;;;;;35.38;12.90;;;5.50;99.90;;;;;;5086207;28;20023;-72
2022/12/25 08:11:42;;;;;;;35.78;12.60;;;5.50;99.90;;;;;;5086110;28;20028;-73
2022/12/25 08:14:08;;;;;;;31.10;10.98;;;5.50;99.90;;;;;;5087381;28;20073;-73
2022/12/25 08:16:34;;;;;;;35.35;11.70;;;5.50;99.90;;;;;;5080646;28;20031;-73
2022/12/25 08:19:00;;;;;;;35.50;11.27;;;5.60;99.90;;;;;;5070661;28;20118;-73
2022/12/25 08:21:26;;;;;;;36.10;11.95;;;5.60;99.90;;;;;;5108284;28;20031;-73
2022/12/25 08:23:52;;;;;;;33.58;11.27;;;5.60;99.90;;;;;;5090108;28;20027;-72
2022/12/25 08:26:20;;;;;;;40.67;12.82;;;5.60;99.90;;;;;;5112013;28;20107;-73
2022/12/25 08:28:47;;;;;;;34.08;11.63;;;5.70;99.90;;;;;;5074900;28;20031;-73
2022/12/25 08:31:17;;;;;;;35.33;11.82;;;5.70;99.90;;;;;;5075355;28;20425;-73
2022/12/25 08:33:44;;;;;;;34.95;11.70;;;5.70;99.90;;;;;;5109963;28;20023;-73
2022/12/25 08:36:11;;;;;;;30.52;11.30;;;5.70;99.90;;;;;;5110833;28;20554;-73
2022/12/25 08:38:37;;;;;;;32.67;10.95;;;5.80;99.90;;;;;;5091420;28;20022;-73
2022/12/25 08:41:03;;;;;;;40.13;12.20;;;5.80;99.90;;;;;;5081933;28;20031;-72
2022/12/25 08:43:29;;;;;;;32.83;11.13;;;5.80;99.90;;;;;;5094487;28;20020;-72
2022/12/25 08:45:55;;;;;;;31.45;11.27;;;5.90;99.90;;;;;;5112532;28;20074;-72
2022/12/25 08:48:20;;;;;;;36.63;11.57;;;5.90;99.90;;;;;;5109052;28;20035;-72
2022/12/25 08:50:47;;;;;;;36.20;12.50;;;5.80;99.90;;;;;;5074859;28;20039;-72
2022/12/25 08:53:14;;;;;;;35.90;10.85;;;5.90;99.90;;;;;;5114361;28;20022;-72
2022/12/25 08:55:39;;;;;;;30.38;10.57;;;5.90;99.90;;;;;;5096170;28;20022;-72
2022/12/25 08:58:08;;;;;;;28.75;10.95;;;5.90;99.90;;;;;;5111834;28;20023;-73
2022/12/25 09:00:40;;;;;;;;;;;5.90;99.90;;;;;;5076881;28;20059;-73
2022/12/25 09:03:13;;;;;;;31.20;10.23;;;5.90;99.90;;;;;;5077046;28;20494;-73
2022/12/25 09:05:39;;;;;;;28.63;11.10;;;5.90;99.90;;;;;;5091982;28;20072;-72
2022/12/25 09:08:05;;;;;;;32.85;10.18;;;6.00;99.90;;;;;;5077848;28;20035;-72
2022/12/25 09:10:34;;;;;;;29.85;10.70;;;6.00;99.90;;;;;;5090943;28;20032;-72
2022/12/25 09:13:00;;;;;;;23.42;9.82;;;6.00;99.90;;;;;;5093091;28;20436;-72
2022/12/25 09:15:26;;;;;;;27.23;10.40;;;6.00;99.90;;;;;;5110505;28;20020;-72
2022/12/25 09:17:51;;;;;;;26.52;10.35;;;6.00;99.90;;;;;;5091721;28;20125;-72
2022/12/25 09:20:17;;;;;;;31.33;10.25;;;6.10;99.90;;;;;;5106448;28;20112;-73
2022/12/25 09:22:43;;;;;;;24.48;10.23;;;6.10;99.90;;;;;;5110211;28;20110;-72
2022/12/25 09:25:09;;;;;;;33.05;11.50;;;6.10;99.90;;;;;;5092803;28;20544;-72
2022/12/25 09:27:35;;;;;;;36.63;10.80;;;6.10;99.90;;;;;;5111146;28;20122;-72
2022/12/25 09:30:01;;;;;;;28.42;10.25;;;6.10;99.90;;;;;;5091109;28;20043;-72
2022/12/25 09:32:26;;;;;;;27.10;10.23;;;6.10;99.90;;;;;;5092658;28;20028;-72
2022/12/25 09:34:52;;;;;;;23.15;10.10;;;6.20;99.90;;;;;;5090153;28;20036;-73
2022/12/25 09:37:18;;;;;;;27.40;10.85;;;6.20;99.90;;;;;;5092434;28;20016;-73
2022/12/25 09:39:43;;;;;;;26.55;10.23;;;6.20;99.90;;;;;;5073635;28;20063;-73
2022/12/25 09:42:19;;;;;;;28.33;10.70;;;6.20;99.90;;;;;;5111592;28;20458;-73
2022/12/25 09:45:02;;;;;;;28.63;10.93;;;6.20;99.90;;;;;;5110416;28;20368;-73
2022/12/25 09:47:32;;;;;;;27.13;9.63;;;6.20;99.90;;;;;;5088296;28;20050;-73
2022/12/25 09:50:05;;;;;;;25.88;9.95;;;6.30;99.90;;;;;;5089932;28;20151;-73
2022/12/25 09:52:53;;;;;;;28.75;10.18;;;6.30;99.90;;;;;;5092322;28;20024;-73
2022/12/25 09:55:27;;;;;;;33.83;11.23;;;6.30;99.90;;;;;;5092547;28;20022;-73
2022/12/25 09:57:59;;;;;;;32.40;10.02;;;6.30;99.90;;;;;;5090840;28;20114;-73
2022/12/25 10:00:32;;;;;;;22.70;9.05;;;6.30;99.90;;;;;;5072903;28;20039;-74
2022/12/25 10:03:27;;;;;;;32.75;10.93;;;6.30;99.90;;;;;;5109204;28;20028;-73
2022/12/25 10:06:15;;;;;;;30.92;10.90;;;6.40;99.90;;;;;;5054015;28;20039;-73
2022/12/25 10:08:59;;;;;;;36.13;11.93;;;6.40;99.90;;;;;;5108985;28;20035;-73
2022/12/25 10:11:44;;;;;;;25.02;9.40;;;6.40;99.90;;;;;;5089957;28;20511;-73
2022/12/25 10:14:25;;;;;;;27.42;9.88;;;6.40;99.90;;;;;;5091436;28;20035;-73
2022/12/25 10:17:18;;;;;;;27.15;9.18;;;6.40;99.90;;;;;;5109508;28;20019;-73
2022/12/25 10:19:44;;;;;;;19.75;9.55;;;6.50;99.90;;;;;;5104859;28;20036;-73
2022/12/25 10:22:33;;;;;;;24.52;9.50;;;6.50;99.90;;;;;;5099596;28;20058;-73
2022/12/25 10:25:01;;;;;;;26.13;10.30;;;6.60;99.90;;;;;;5113171;28;20054;-73
2022/12/25 10:27:39;;;;;;;21.67;9.85;;;6.60;99.90;;;;;;5091659;28;20024;-73
2022/12/25 10:30:26;;;;;;;29.13;9.65;;;6.60;99.90;;;;;;5109517;28;20040;-73
2022/12/25 10:32:53;;;;;;;32.33;10.25;;;6.60;99.90;;;;;;5091381;28;20028;-73
2022/12/25 10:35:22;;;;;;;22.92;9.73;;;6.60;99.90;;;;;;5106444;28;20490;-74
2022/12/25 10:38:05;;;;;;;25.42;9.65;;;6.70;99.90;;;;;;5108579;28;20035;-74
2022/12/25 10:40:43;;;;;;;25.63;9.70;;;6.70;99.90;;;;;;5109176;28;20511;-74
2022/12/25 10:43:20;;;;;;;29.85;9.43;;;6.70;99.90;;;;;;5088233;28;20027;-73
2022/12/25 10:45:47;;;;;;;20.75;9.60;;;6.70;99.90;;;;;;5090108;28;20020;-74
2022/12/25 10:48:21;;;;;;;24.83;9.93;;;6.80;99.90;;;;;;5108273;28;20036;-74
2022/12/25 10:50:47;;;;;;;34.80;10.25;;;6.80;99.90;;;;;;5089964;28;20027;-74
2022/12/25 10:53:19;;;;;;;24.90;10.48;;;6.70;99.90;;;;;;5106945;28;20115;-74
2022/12/25 10:55:56;;;;;;;23.83;9.00;;;6.70;99.90;;;;;;5109180;28;20022;-73
2022/12/25 10:58:22;;;;;;;23.25;9.75;;;6.70;99.90;;;;;;5109370;28;20024;-73
2022/12/25 11:01:03;;;;;;;29.48;10.43;;;6.70;99.90;;;;;;5092392;28;20506;-74
2022/12/25 11:03:30;;;;;;;;;;;6.80;99.90;;;;;;5108777;28;20114;-73
2022/12/25 11:05:56;;;;;;;26.25;10.00;;;6.80;99.90;;;;;;5107519;28;19915;-73
2022/12/25 11:08:26;;;;;;;27.67;9.93;;;6.80;99.90;;;;;;5104242;28;20101;-73
2022/12/25 11:11:05;;;;;;;30.13;10.75;;;6.80;99.90;;;;;;5088140;28;20081;-73
2022/12/25 11:13:38;;;;;;;20.55;8.38;;;6.90;99.90;;;;;;5105027;28;20106;-73
2022/12/25 11:16:25;;;;;;;16.77;9.20;;;6.90;99.90;;;;;;5072494;28;20077;-73
2022/12/25 11:18:53;;;;;;;23.42;9.82;;;6.90;99.90;;;;;;5089530;28;20479;-74
2022/12/25 11:21:31;;;;;;;27.67;9.25;;;6.90;99.90;;;;;;5088545;28;20062;-73
2022/12/25 11:24:20;;;;;;;25.30;8.77;;;7.00;99.90;;;;;;5088582;28;20360;-74
2022/12/25 11:26:49;;;;;;;24.27;8.82;;;7.00;99.90;;;;;;5106582;28;20080;-73
2022/12/25 11:29:28;;;;;;;24.42;10.13;;;7.30;99.90;;;;;;5089537;28;20032;-73
2022/12/25 11:31:56;;;;;;;22.63;9.68;;;7.20;99.90;;;;;;5090868;28;20498;-73
2022/12/25 11:34:30;;;;;;;28.20;11.65;;;7.20;99.90;;;;;;5070158;28;20028;-73
2022/12/25 11:36:57;;;;;;;20.92;8.52;;;7.10;99.90;;;;;;5089752;28;20031;-73
2022/12/25 11:39:27;;;;;;;25.52;10.07;;;7.10;99.90;;;;;;5106222;28;20046;-74
2022/12/25 11:41:59;;;;;;;26.92;10.00;;;7.00;99.90;;;;;;5089583;28;20104;-73
2022/12/25 11:44:34;;;;;;;22.35;9.75;;;7.30;99.90;;;;;;5087848;28;20058;-73
2022/12/25 11:47:11;;;;;;;21.05;10.13;;;7.20;99.90;;;;;;5072262;28;20027;-74
2022/12/25 11:49:44;;;;;;;25.30;9.23;;;7.20;99.90;;;;;;5073051;28;20043;-73
2022/12/25 11:52:12;;;;;;;26.20;9.35;;;7.10;99.90;;;;;;5090484;28;20028;-73
2022/12/25 11:54:55;;;;;;;22.25;9.15;;;7.10;99.90;;;;;;5089550;28;20027;-73
2022/12/25 11:57:25;;;;;;;21.83;9.93;;;7.10;99.90;;;;;;5106399;28;20072;-73
2022/12/25 12:00:15;;;;;;;19.65;9.00;;;7.10;99.90;;;;;;5110745;28;20058;-73
2022/12/25 12:02:44;;;;;;;19.25;8.80;;;7.20;99.90;;;;;;5094918;28;20046;-73
2022/12/25 12:05:26;;;;;;;19.45;8.82;;;7.20;99.90;;;;;;5099256;28;20035;-73
2022/12/25 12:08:01;;;;;;;25.85;10.52;;;7.20;99.90;;;;;;5095347;28;20458;-74
2022/12/25 12:10:58;;;;;;;24.60;9.38;;;7.20;99.90;;;;;;5094086;28;20047;-73
2022/12/25 12:13:25;;;;;;;18.23;8.50;;;7.20;99.90;;;;;;5089037;28;20024;-73
2022/12/25 12:15:51;;;;;;;21.92;9.35;;;7.20;99.90;;;;;;5111951;28;20065;-73
2022/12/25 12:18:24;;;;;;;29.98;9.38;;;7.20;99.90;;;;;;5108031;28;20031;-74
2022/12/25 12:21:15;;;;;;;21.92;8.93;;;7.20;99.90;;;;;;5090789;28;20602;-73
2022/12/25 12:23:50;;;;;;;23.55;9.50;;;7.30;99.90;;;;;;5109085;28;20553;-73
2022/12/25 12:26:27;;;;;;;24.17;8.43;;;7.30;99.90;;;;;;5090853;28;20046;-73
2022/12/25 12:29:04;;;;;;;27.17;9.35;;;7.20;99.90;;;;;;5077142;28;20559;-73
2022/12/25 12:31:48;;;;;;;21.77;9.77;;;7.20;99.90;;;;;;5115477;28;20028;-74
2022/12/25 12:34:22;;;;;;;22.77;9.80;;;7.30;99.90;;;;;;5093902;28;20060;-74
2022/12/25 12:36:51;;;;;;;21.27;9.20;;;7.30;99.90;;;;;;5093967;28;20498;-73
2022/12/25 12:39:24;;;;;;;25.10;8.80;;;7.20;99.90;;;;;;5112099;28;20076;-73
2022/12/25 12:41:50;;;;;;;23.83;8.93;;;7.30;99.90;;;;;;5092206;28;20192;-73
2022/12/25 12:44:16;;;;;;;24.05;8.80;;;7.20;99.90;;;;;;5109724;28;20173;-73
2022/12/25 12:46:55;;;;;;;21.17;8.40;;;7.30;99.90;;;;;;5075158;28;20437;-73
2022/12/25 12:49:31;;;;;;;16.63;8.52;;;7.30;99.90;;;;;;5110803;28;20097;-73
2022/12/25 12:52:05;;;;;;;21.55;8.82;;;7.30;99.90;;;;;;5111073;28;20128;-74
2022/12/25 12:54:31;;;;;;;22.05;10.10;;;7.30;99.90;;;;;;5092302;28;20103;-73
2022/12/25 12:57:02;;;;;;;23.98;9.02;;;7.30;99.90;;;;;;5076515;28;20051;-74
2022/12/25 12:59:43;;;;;;;26.90;9.25;;;7.30;99.90;;;;;;5093500;28;20024;-73
2022/12/25 13:02:23;;;;;;;17.27;8.40;;;7.30;99.90;;;;;;5074681;28;20035;-73
2022/12/25 13:05:01;;;;;;;25.45;9.95;;;7.40;99.90;;;;;;5074922;28;20111;-73
2022/12/25 13:07:51;;;;;;;30.05;10.65;;;7.30;99.90;;;;;;5091106;28;20115;-73
2022/12/25 13:10:40;;;;;;;21.27;9.88;;;7.30;99.90;;;;;;5107614;28;20132;-74
2022/12/25 13:13:14;;;;;;;25.55;9.68;;;7.40;99.90;;;;;;5110515;28;20664;-73
2022/12/25 13:15:40;;;;;;;29.52;11.70;;;7.40;99.90;;;;;;5075956;28;20028;-74
2022/12/25 13:18:10;;;;;;;23.58;10.20;;;7.40;99.90;;;;;;5090590;28;20145;-73
2022/12/25 13:20:39;;;;;;;27.80;11.60;;;7.40;99.90;;;;;;5108028;28;20408;-74
2022/12/25 13:23:28;;;;;;;23.85;11.48;;;7.40;99.90;;;;;;5091964;28;20023;-73
2022/12/25 13:25:56;;;;;;;25.83;11.55;;;7.60;99.90;;;;;;5091350;28;20193;-73
2022/12/25 13:28:27;;;;;;;27.67;12.10;;;7.70;99.90;;;;;;5091634;28;20035;-73
2022/12/25 13:31:00;;;;;;;26.83;12.35;;;7.60;99.90;;;;;;5111218;28;20070;-73
2022/12/25 13:33:25;;;;;;;26.88;11.75;;;7.50;99.90;;;;;;5111663;28;20020;-74
2022/12/25 13:35:51;;;;;;;22.77;10.98;;;7.50;99.90;;;;;;5092238;28;20084;-73
2022/12/25 13:38:17;;;;;;;25.27;11.02;;;7.40;99.90;;;;;;5107429;28;20035;-73
2022/12/25 13:43:38;;;;;;;30.10;12.30;;;7.40;99.90;;;;;;5092376;28;20054;-74
2022/12/25 13:46:04;;;;;;;27.73;11.77;;;7.40;99.90;;;;;;5095302;28;20483;-74
2022/12/25 13:48:30;;;;;;;104.70;38.88;;;7.40;99.90;;;;;;5088112;28;20039;-73
2022/12/25 13:51:00;;;;;;;28.60;14.82;;;7.70;99.90;;;;;;5114615;28;20031;-74
2022/12/25 13:53:26;;;;;;;34.70;13.68;;;7.60;99.90;;;;;;5089755;28;20022;-73
2022/12/25 13:55:54;;;;;;;35.53;14.32;;;7.50;99.90;;;;;;5109873;28;20407;-74
2022/12/25 13:58:27;;;;;;;30.70;15.68;;;7.40;99.90;;;;;;5090548;28;20479;-73
2022/12/25 14:00:55;;;;;;;36.67;15.25;;;7.40;99.90;;;;;;5105842;28;20139;-73
2022/12/25 14:03:25;;;;;;;33.10;16.92;;;7.30;99.90;;;;;;5090084;28;20519;-74
2022/12/25 14:05:59;;;;;;;41.33;18.02;;;7.30;99.90;;;;;;5091103;28;20475;-73
2022/12/25 14:08:27;;;;;;;39.15;17.17;;;7.30;99.90;;;;;;5092097;28;20036;-74
2022/12/25 14:10:54;;;;;;;37.53;16.85;;;7.30;99.90;;;;;;5090082;28;20608;-74
2022/12/25 14:13:23;;;;;;;36.67;17.83;;;7.30;99.90;;;;;;5087762;28;20110;-74
2022/12/25 14:15:50;;;;;;;37.03;19.00;;;7.30;99.90;;;;;;5091041;28;20016;-73
2022/12/25 14:18:17;;;;;;;45.40;18.42;;;7.30;99.90;;;;;;5073550;28;20035;-74
2022/12/25 14:21:04;;;;;;;43.40;17.95;;;7.20;99.90;;;;;;5073492;28;20031;-74
2022/12/25 14:23:49;;;;;;;41.85;18.08;;;7.20;99.90;;;;;;5090248;28;20039;-73
2022/12/25 14:26:26;;;;;;;41.97;18.88;;;7.20;99.90;;;;;;5084559;28;20046;-73
2022/12/25 14:29:04;;;;;;;52.67;21.63;;;7.20;99.90;;;;;;5110853;28;20126;-73
2022/12/25 14:31:31;;;;;;;48.85;21.35;;;7.20;99.90;;;;;;5108616;28;20347;-74
2022/12/25 14:33:59;;;;;;;45.58;19.58;;;7.20;99.90;;;;;;5090457;28;20028;-74
2022/12/25 14:36:26;;;;;;;40.97;19.20;;;7.20;99.90;;;;;;5090564;28;20490;-73
2022/12/25 14:39:03;;;;;;;54.63;19.75;;;7.20;99.90;;;;;;5091049;28;20065;-73